^^
Datos históricos de la estación: Murcia-Puente Tocinos
Diario Informe para Noviembre 25, 2019 Unidades:  Ambas    Ingés   Métrico
Diario Semanal Mensual Anual
  Máxima: Mínima: Promedio:
Temperatura: 70.3 °F /  21.3 °C 47.7 °F /  8.7 °C 58.8 °F /  14.9 °C
Punto de rocio: 52.3 °F /  11.3 °C 37.6 °F /  3.1 °C 45.7 °F /  7.6 °C
Humedad: 76.9% 49.6% 62%
Velocidad viento: 6.9mph /  11.1km/h - 3.5mph /  5.6km/h
Racha viento: 13mph /  20.9km/h - -
Viento- - SSO
Presión: 30 in /  1014.7 hPa 29.9 in /  1011.7 hPa -
Precipitación: 0 in /  0.0 mm    
 
 
Tabla de datos para Noviembre 25, 2019
Hora Temperatura Punto de rocio Presión Viento Velocidad viento Racha viento Humedad Intensidad lluvia(por hora) Nubes
00:04 50.7 °F /  10.4 °C 37.8 °F /  3.2 °C 29.9in /  1014.1hPa SSE 5mph /  8.1km/h 7mph /  11.3km/h 60.9% 0in /  0.0mm
00:09 51.1 °F /  10.6 °C 37.6 °F /  3.1 °C 30in /  1014.2hPa SSE 4.7mph /  7.6km/h 5.9mph /  9.5km/h 60% 0in /  0.0mm
00:14 51.3 °F /  10.7 °C 37.8 °F /  3.2 °C 30in /  1014.2hPa SSE 4.2mph /  6.8km/h 6mph /  9.7km/h 60% 0in /  0.0mm
00:19 51.3 °F /  10.7 °C 37.8 °F /  3.2 °C 30in /  1014.2hPa SSE 4mph /  6.5km/h 3mph /  4.8km/h 60% 0in /  0.0mm
00:24 51.4 °F /  10.8 °C 37.9 °F /  3.3 °C 30in /  1014.2hPa SSE 2.6mph /  4.2km/h 3.5mph /  5.6km/h 60% 0in /  0.0mm
00:29 51.4 °F /  10.8 °C 37.9 °F /  3.3 °C 30in /  1014.2hPa SSO 2mph /  3.2km/h 4.7mph /  7.6km/h 59.8% 0in /  0.0mm
00:34 52.2 °F /  11.2 °C 38.1 °F /  3.4 °C 30in /  1014.2hPa OSO 2.6mph /  4.2km/h 5mph /  8km/h 58.8% 0in /  0.0mm
00:39 52.3 °F /  11.3 °C 38.1 °F /  3.4 °C 30in /  1014.2hPa ONO 2.9mph /  4.7km/h 5mph /  8km/h 58% 0in /  0.0mm
00:44 52.3 °F /  11.3 °C 38.1 °F /  3.4 °C 29.9in /  1014.1hPa ONO 3mph /  4.9km/h 5mph /  8km/h 58% 0in /  0.0mm
00:49 52.5 °F /  11.4 °C 38.1 °F /  3.4 °C 29.9in /  1014.1hPa ONO 3.1mph /  5km/h 5mph /  8km/h 57.7% 0in /  0.0mm
00:54 52.5 °F /  11.4 °C 38.1 °F /  3.4 °C 30in /  1014.2hPa SSE 3mph /  4.8km/h 4.6mph /  7.4km/h 57.8% 0in /  0.0mm
00:59 52.2 °F /  11.2 °C 38.3 °F /  3.5 °C 30in /  1014.2hPa SSE 2.9mph /  4.7km/h 5mph /  8km/h 59% 0in /  0.0mm
01:04 52.2 °F /  11.2 °C 38.1 °F /  3.4 °C 30in /  1014.2hPa SSE 2.2mph /  3.6km/h 3mph /  4.8km/h 58.5% 0in /  0.0mm
01:09 52.2 °F /  11.2 °C 37.9 °F /  3.3 °C 30in /  1014.2hPa SO 2mph /  3.2km/h 3.6mph /  5.8km/h 58.2% 0in /  0.0mm
01:14 52.2 °F /  11.2 °C 38.3 °F /  3.5 °C 30in /  1014.2hPa Oeste 1.9mph /  3km/h 4.6mph /  7.4km/h 59% 0in /  0.0mm
01:19 52.2 °F /  11.2 °C 38.3 °F /  3.5 °C 30in /  1014.2hPa Oeste 1.8mph /  2.9km/h 5mph /  8km/h 59% 0in /  0.0mm
01:24 52.3 °F /  11.3 °C 38.3 °F /  3.5 °C 30in /  1014.2hPa Oeste 2.7mph /  4.4km/h 5mph /  8km/h 58.5% 0in /  0.0mm
01:29 52.9 °F /  11.6 °C 38.5 °F /  3.6 °C 29.9in /  1014.1hPa Oeste 3.1mph /  5km/h 5mph /  8km/h 57.9% 0in /  0.0mm
01:34 53.1 °F /  11.7 °C 38.3 °F /  3.5 °C 29.9in /  1014.1hPa Oeste 2.6mph /  4.2km/h 5mph /  8km/h 57% 0in /  0.0mm
01:39 53.2 °F /  11.8 °C 38.5 °F /  3.6 °C 29.9in /  1014.1hPa Oeste 2.4mph /  3.9km/h 5mph /  8km/h 57% 0in /  0.0mm
01:44 53.4 °F /  11.9 °C 38.7 °F /  3.7 °C 29.9in /  1013.8hPa Oeste 2.1mph /  3.4km/h 3.6mph /  5.8km/h 57% 0in /  0.0mm
01:49 53.4 °F /  11.9 °C 38.7 °F /  3.7 °C 29.9in /  1013.8hPa NO 2mph /  3.2km/h 4mph /  6.4km/h 57% 0in /  0.0mm
01:54 53.4 °F /  11.9 °C 38.7 °F /  3.7 °C 29.9in /  1013.9hPa NNO 1.9mph /  3km/h 4mph /  6.4km/h 57.4% 0in /  0.0mm
01:59 53.2 °F /  11.8 °C 38.8 °F /  3.8 °C 29.9in /  1013.9hPa NNO 1.8mph /  2.9km/h 4mph /  6.4km/h 58.1% 0in /  0.0mm
02:04 52.7 °F /  11.5 °C 38.8 °F /  3.8 °C 29.9in /  1013.9hPa NO 2.2mph /  3.6km/h 5.2mph /  8.4km/h 59.2% 0in /  0.0mm
02:09 52.3 °F /  11.3 °C 38.8 °F /  3.8 °C 29.9in /  1014.0hPa Oeste 2.4mph /  3.9km/h 5.4mph /  8.7km/h 60% 0in /  0.0mm
02:14 52.2 °F /  11.2 °C 38.7 °F /  3.7 °C 29.9in /  1014.0hPa OSO 2.7mph /  4.4km/h 6mph /  9.7km/h 59.6% 0in /  0.0mm
02:19 52.3 °F /  11.3 °C 38.7 °F /  3.7 °C 29.9in /  1014.0hPa SO 2.9mph /  4.7km/h 5mph /  8km/h 59.3% 0in /  0.0mm
02:24 52.2 °F /  11.2 °C 38.8 °F /  3.8 °C 29.9in /  1014.0hPa SO 2.5mph /  4.1km/h 5mph /  8km/h 60% 0in /  0.0mm
02:29 52.2 °F /  11.2 °C 38.7 °F /  3.7 °C 29.9in /  1013.9hPa SO 2.4mph /  3.9km/h 5.2mph /  8.4km/h 60% 0in /  0.0mm
02:34 52.2 °F /  11.2 °C 38.7 °F /  3.7 °C 29.9in /  1013.9hPa SO 3.2mph /  5.2km/h 6.9mph /  11.1km/h 60% 0in /  0.0mm
02:39 52.2 °F /  11.2 °C 38.7 °F /  3.7 °C 29.9in /  1013.9hPa OSO 3.6mph /  5.8km/h 7mph /  11.3km/h 60% 0in /  0.0mm
02:44 52 °F /  11.1 °C 38.8 °F /  3.8 °C 29.9in /  1013.9hPa OSO 4.3mph /  7km/h 7.4mph /  11.9km/h 60.8% 0in /  0.0mm
02:49 51.6 °F /  10.9 °C 38.7 °F /  3.7 °C 29.9in /  1013.9hPa SSO 4.7mph /  7.6km/h 8.7mph /  14km/h 61% 0in /  0.0mm
02:54 51.8 °F /  11 °C 38.7 °F /  3.7 °C 29.9in /  1013.9hPa SSO 4.7mph /  7.6km/h 9mph /  14.5km/h 60.9% 0in /  0.0mm
02:59 51.4 °F /  10.8 °C 38.7 °F /  3.7 °C 29.9in /  1013.7hPa NNO 4.7mph /  7.6km/h 6mph /  9.7km/h 61.4% 0in /  0.0mm
03:04 50.7 °F /  10.4 °C 38.7 °F /  3.7 °C 29.9in /  1013.7hPa NNO 3mph /  4.9km/h 5mph /  8km/h 63.2% 0in /  0.0mm
03:09 50.2 °F /  10.1 °C 38.8 °F /  3.8 °C 29.9in /  1014.1hPa NNE 2.4mph /  3.9km/h 4.7mph /  7.6km/h 65% 0in /  0.0mm
03:14 49.6 °F /  9.8 °C 38.7 °F /  3.7 °C 29.9in /  1014.1hPa Sur 2.4mph /  3.9km/h 8.1mph /  13km/h 66% 0in /  0.0mm
03:19 49.5 °F /  9.7 °C 39 °F /  3.9 °C 29.9in /  1014.1hPa SO 2.4mph /  3.9km/h 8mph /  12.9km/h 66.8% 0in /  0.0mm
03:24 49.5 °F /  9.7 °C 39 °F /  3.9 °C 29.9in /  1014.1hPa SSE 3.2mph /  5.2km/h 5.8mph /  9.3km/h 66.9% 0in /  0.0mm
03:29 49.5 °F /  9.7 °C 38.7 °F /  3.7 °C 29.9in /  1014.0hPa SSE 3.6mph /  5.8km/h 8.5mph /  13.7km/h 66% 0in /  0.0mm
03:34 49.5 °F /  9.7 °C 38.7 °F /  3.7 °C 29.9in /  1014.0hPa SSE 4.1mph /  6.6km/h 9.2mph /  14.8km/h 66% 0in /  0.0mm
03:39 49.5 °F /  9.7 °C 38.7 °F /  3.7 °C 29.9in /  1014.0hPa SE 4.3mph /  6.9km/h 9.2mph /  14.8km/h 66% 0in /  0.0mm
03:44 49.3 °F /  9.6 °C 38.5 °F /  3.6 °C 29.9in /  1013.8hPa ONO 4.6mph /  7.4km/h 9mph /  14.5km/h 66.3% 0in /  0.0mm
03:49 49.1 °F /  9.5 °C 38.5 °F /  3.6 °C 29.9in /  1013.8hPa Este 4.7mph /  7.6km/h 7mph /  11.3km/h 67% 0in /  0.0mm
03:54 49.3 °F /  9.6 °C 38.5 °F /  3.6 °C 29.9in /  1013.8hPa Sur 3.5mph /  5.6km/h 5mph /  8km/h 66.3% 0in /  0.0mm
03:59 49.1 °F /  9.5 °C 38.5 °F /  3.6 °C 29.9in /  1013.7hPa Sur 2.9mph /  4.7km/h 5mph /  8km/h 66.8% 0in /  0.0mm
04:04 48.7 °F /  9.3 °C 38.5 °F /  3.6 °C 29.9in /  1013.7hPa SO 2.9mph /  4.6km/h 6.9mph /  11.1km/h 67.2% 0in /  0.0mm
04:09 48.6 °F /  9.2 °C 38.5 °F /  3.6 °C 29.9in /  1013.7hPa SSO 2.9mph /  4.7km/h 7.4mph /  11.9km/h 68% 0in /  0.0mm
04:14 48.6 °F /  9.2 °C 38.5 °F /  3.6 °C 29.9in /  1013.4hPa SSO 4.1mph /  6.6km/h 8.1mph /  13km/h 68% 0in /  0.0mm
04:19 48.7 °F /  9.3 °C 38.7 °F /  3.7 °C 29.9in /  1013.4hPa SO 4.7mph /  7.6km/h 9.2mph /  14.8km/h 68% 0in /  0.0mm
04:24 48.9 °F /  9.4 °C 38.5 °F /  3.6 °C 29.9in /  1013.4hPa SO 5mph /  8.1km/h 9mph /  14.5km/h 67.3% 0in /  0.0mm
04:29 49.1 °F /  9.5 °C 38.7 °F /  3.7 °C 29.9in /  1013.3hPa OSO 5.2mph /  8.4km/h 6mph /  9.7km/h 67% 0in /  0.0mm
04:34 48.9 °F /  9.4 °C 38.3 °F /  3.5 °C 29.9in /  1013.3hPa OSO 4.1mph /  6.6km/h 6mph /  9.7km/h 67% 0in /  0.0mm
04:39 48.7 °F /  9.3 °C 38.5 °F /  3.6 °C 29.9in /  1013.3hPa Sur 3.6mph /  5.8km/h 6mph /  9.7km/h 67.3% 0in /  0.0mm
04:44 48.6 °F /  9.2 °C 38.5 °F /  3.6 °C 29.9in /  1013.2hPa ESE 2.5mph /  4km/h 3.1mph /  5km/h 68% 0in /  0.0mm
04:49 48.6 °F /  9.2 °C 38.5 °F /  3.6 °C 29.9in /  1013.2hPa OSO 2mph /  3.2km/h 6.2mph /  10km/h 68% 0in /  0.0mm
04:54 48.4 °F /  9.1 °C 38.3 °F /  3.5 °C 29.9in /  1013.2hPa OSO 2.3mph /  3.7km/h 6.2mph /  10km/h 68.2% 0in /  0.0mm
04:59 48.7 °F /  9.3 °C 39 °F /  3.9 °C 29.9in /  1013.2hPa SO 2.4mph /  3.9km/h 9.2mph /  14.8km/h 69% 0in /  0.0mm
05:04 50 °F /  10 °C 39.9 °F /  4.4 °C 29.9in /  1013.2hPa SSO 4.5mph /  7.3km/h 12.3mph /  19.8km/h 68.1% 0in /  0.0mm
05:09 51.6 °F /  10.9 °C 40.8 °F /  4.9 °C 29.9in /  1013.2hPa SO 5.4mph /  8.7km/h 13mph /  20.9km/h 66.6% 0in /  0.0mm
05:14 52.3 °F /  11.3 °C 41.2 °F /  5.1 °C 29.9in /  1013.2hPa SO 6.5mph /  10.4km/h 12mph /  19.3km/h 65.3% 0in /  0.0mm
05:19 52.9 °F /  11.6 °C 41.2 °F /  5.1 °C 29.9in /  1013.2hPa OSO 6.9mph /  11.1km/h 9mph /  14.5km/h 64.5% 0in /  0.0mm
05:24 53.1 °F /  11.7 °C 41.2 °F /  5.1 °C 29.9in /  1013.2hPa OSO 5.2mph /  8.3km/h 7mph /  11.3km/h 64% 0in /  0.0mm
05:29 52.9 °F /  11.6 °C 41.4 °F /  5.2 °C 29.9in /  1013.2hPa SO 4.3mph /  6.9km/h 8.5mph /  13.7km/h 64.7% 0in /  0.0mm
05:34 52.9 °F /  11.6 °C 41.5 °F /  5.3 °C 29.9in /  1013.2hPa SO 4.9mph /  7.9km/h 9.2mph /  14.8km/h 65% 0in /  0.0mm
05:39 53.1 °F /  11.7 °C 41.5 °F /  5.3 °C 29.9in /  1013.2hPa OSO 5.2mph /  8.4km/h 9.7mph /  15.6km/h 64.6% 0in /  0.0mm
05:44 53.1 °F /  11.7 °C 41.4 °F /  5.2 °C 29.9in /  1013.2hPa OSO 5.2mph /  8.4km/h 10mph /  16.1km/h 64.3% 0in /  0.0mm
05:49 52.9 °F /  11.6 °C 41.4 °F /  5.2 °C 29.9in /  1013.2hPa OSO 5.2mph /  8.4km/h 8mph /  12.9km/h 65% 0in /  0.0mm
05:54 52.7 °F /  11.5 °C 41.4 °F /  5.2 °C 29.9in /  1013.2hPa OSO 4.6mph /  7.4km/h 7mph /  11.3km/h 65% 0in /  0.0mm
05:59 52.5 °F /  11.4 °C 41.2 °F /  5.1 °C 29.9in /  1013.2hPa OSO 4.3mph /  6.9km/h 6mph /  9.7km/h 65% 0in /  0.0mm
06:04 52.3 °F /  11.3 °C 41 °F /  5 °C 29.9in /  1013.2hPa OSO 3.8mph /  6.1km/h 6mph /  9.7km/h 65% 0in /  0.0mm
06:09 52 °F /  11.1 °C 40.6 °F /  4.8 °C 29.9in /  1013.2hPa SO 3.6mph /  5.8km/h 6mph /  9.7km/h 65.2% 0in /  0.0mm
06:14 51.4 °F /  10.8 °C 40.5 °F /  4.7 °C 29.9in /  1013.1hPa OSO 3.6mph /  5.8km/h 6mph /  9.7km/h 66% 0in /  0.0mm
06:19 51.1 °F /  10.6 °C 40.5 °F /  4.7 °C 29.9in /  1013.1hPa OSO 3.6mph /  5.8km/h 6.2mph /  10km/h 66.6% 0in /  0.0mm
06:24 50.5 °F /  10.3 °C 40.3 °F /  4.6 °C 29.9in /  1013.2hPa OSO 3.6mph /  5.8km/h 6mph /  9.7km/h 67.7% 0in /  0.0mm
06:29 50.2 °F /  10.1 °C 40.1 °F /  4.5 °C 29.9in /  1013.2hPa SO 3.6mph /  5.8km/h 5mph /  8km/h 68.4% 0in /  0.0mm
06:34 49.6 °F /  9.8 °C 39.9 °F /  4.4 °C 29.9in /  1013.2hPa OSO 2.8mph /  4.5km/h 5mph /  8km/h 69% 0in /  0.0mm
06:39 49.5 °F /  9.7 °C 40.1 °F /  4.5 °C 29.9in /  1013.2hPa SO 2.4mph /  3.9km/h 5mph /  8km/h 69.8% 0in /  0.0mm
06:44 49.3 °F /  9.6 °C 39.9 °F /  4.4 °C 29.9in /  1013.2hPa SO 2.1mph /  3.4km/h 5mph /  8km/h 70% 0in /  0.0mm
06:49 49.3 °F /  9.6 °C 40.3 °F /  4.6 °C 29.9in /  1013.2hPa SO 2mph /  3.2km/h 4mph /  6.4km/h 71% 0in /  0.0mm
06:54 49.3 °F /  9.6 °C 40.3 °F /  4.6 °C 29.9in /  1013.4hPa SO 1.6mph /  2.6km/h 2mph /  3.2km/h 71% 0in /  0.0mm
06:59 49.3 °F /  9.6 °C 40.5 °F /  4.7 °C 29.9in /  1013.4hPa SSE 1.4mph /  2.2km/h 4.7mph /  7.6km/h 71.5% 0in /  0.0mm
07:04 49.5 °F /  9.7 °C 40.5 °F /  4.7 °C 29.9in /  1013.4hPa SSE 1.8mph /  2.9km/h 5mph /  8km/h 71% 0in /  0.0mm
07:09 49.5 °F /  9.7 °C 40.1 °F /  4.5 °C 29.9in /  1013.7hPa SSE 2mph /  3.2km/h 5mph /  8km/h 70.2% 0in /  0.0mm
07:14 49.5 °F /  9.7 °C 40.1 °F /  4.5 °C 29.9in /  1013.7hPa Sur 2mph /  3.2km/h 4.3mph /  6.9km/h 70% 0in /  0.0mm
07:19 49.5 °F /  9.7 °C 40.1 °F /  4.5 °C 29.9in /  1013.7hPa SSE 2mph /  3.2km/h 5.8mph /  9.3km/h 70% 0in /  0.0mm
07:24 49.1 °F /  9.5 °C 40.1 °F /  4.5 °C 29.9in /  1014.0hPa Este 2.3mph /  3.7km/h 6mph /  9.7km/h 70.7% 0in /  0.0mm
07:29 48.7 °F /  9.3 °C 39.9 °F /  4.4 °C 29.9in /  1014.0hPa SSE 2.4mph /  3.9km/h 6.2mph /  10km/h 71.8% 0in /  0.0mm
07:34 48.4 °F /  9.1 °C 39.9 °F /  4.4 °C 29.9in /  1014.0hPa Sur 3.2mph /  5.2km/h 6mph /  9.7km/h 72.5% 0in /  0.0mm
07:39 48.6 °F /  9.2 °C 40.1 °F /  4.5 °C 29.9in /  1014.0hPa Sur 3.6mph /  5.8km/h 5mph /  8km/h 73% 0in /  0.0mm
07:44 48.7 °F /  9.3 °C 40.3 °F /  4.6 °C 29.9in /  1013.7hPa Sur 3.2mph /  5.2km/h 5.2mph /  8.4km/h 72.6% 0in /  0.0mm
07:49 49.1 °F /  9.5 °C 40.5 °F /  4.7 °C 29.9in /  1013.7hPa Sur 3.1mph /  5km/h 5.8mph /  9.3km/h 72% 0in /  0.0mm
07:54 49.1 °F /  9.5 °C 40.1 °F /  4.5 °C 29.9in /  1014.0hPa SSO 3.1mph /  5km/h 6mph /  9.7km/h 71.1% 0in /  0.0mm
07:59 48.4 °F /  9.1 °C 39.7 °F /  4.3 °C 29.9in /  1014.0hPa NO 3.1mph /  5km/h 5.8mph /  9.3km/h 72% 0in /  0.0mm
08:04 47.8 °F /  8.8 °C 39.9 °F /  4.4 °C 29.9in /  1014.0hPa NO 3mph /  4.8km/h 6mph /  9.7km/h 73.4% 0in /  0.0mm
08:09 47.7 °F /  8.7 °C 39.9 °F /  4.4 °C 29.9in /  1014.0hPa Oeste 2.9mph /  4.7km/h 5.2mph /  8.4km/h 74.5% 0in /  0.0mm
08:14 48 °F /  8.9 °C 40.6 °F /  4.8 °C 29.9in /  1014.0hPa SSE 2.5mph /  4.1km/h 6.4mph /  10.3km/h 75.5% 0in /  0.0mm
08:19 48.9 °F /  9.4 °C 41 °F /  5 °C 29.9in /  1014.0hPa Sur 2.4mph /  3.9km/h 8.5mph /  13.7km/h 73.9% 0in /  0.0mm
08:24 49.6 °F /  9.8 °C 41 °F /  5 °C 29.9in /  1014.0hPa SSE 4.8mph /  7.8km/h 10.7mph /  17.2km/h 72.1% 0in /  0.0mm
08:29 49.8 °F /  9.9 °C 40.8 °F /  4.9 °C 29.9in /  1013.6hPa SSE 5.9mph /  9.5km/h 11mph /  17.7km/h 71% 0in /  0.0mm
08:34 49.6 °F /  9.8 °C 41 °F /  5 °C 29.9in /  1013.6hPa SE 6.3mph /  10.1km/h 10mph /  16.1km/h 71.9% 0in /  0.0mm
08:39 49.6 °F /  9.8 °C 40.8 °F /  4.9 °C 29.9in /  1013.6hPa Sur 6.4mph /  10.3km/h 8.1mph /  13km/h 72% 0in /  0.0mm
08:44 49.5 °F /  9.7 °C 41.2 °F /  5.1 °C 29.9in /  1013.4hPa OSO 5.2mph /  8.4km/h 8mph /  12.9km/h 72.8% 0in /  0.0mm
08:49 49.6 °F /  9.8 °C 41.4 °F /  5.2 °C 29.9in /  1013.4hPa ONO 4.7mph /  7.6km/h 6.9mph /  11.1km/h 73% 0in /  0.0mm
08:54 50 °F /  10 °C 41.2 °F /  5.1 °C 29.9in /  1013.9hPa ONO 4.2mph /  6.8km/h 7mph /  11.3km/h 72% 0in /  0.0mm
08:59 49.6 °F /  9.8 °C 41.4 °F /  5.2 °C 29.9in /  1013.9hPa OSO 4mph /  6.5km/h 7mph /  11.3km/h 72.7% 0in /  0.0mm
09:04 49.8 °F /  9.9 °C 41.5 °F /  5.3 °C 29.9in /  1013.9hPa OSO 4mph /  6.5km/h 6.2mph /  10km/h 73% 0in /  0.0mm
09:09 50.2 °F /  10.1 °C 41.7 °F /  5.4 °C 29.9in /  1013.9hPa SO 4mph /  6.5km/h 6mph /  9.7km/h 72.6% 0in /  0.0mm
09:14 50.7 °F /  10.4 °C 41.9 °F /  5.5 °C 29.9in /  1013.8hPa SSO 3.4mph /  5.5km/h 5.4mph /  8.7km/h 71.5% 0in /  0.0mm
09:19 51.4 °F /  10.8 °C 42.1 °F /  5.6 °C 29.9in /  1013.8hPa SSE 3.1mph /  5km/h 8.7mph /  14km/h 70.3% 0in /  0.0mm
09:24 52 °F /  11.1 °C 42.1 °F /  5.6 °C 29.9in /  1013.8hPa SSE 4.5mph /  7.3km/h 9.2mph /  14.8km/h 69% 0in /  0.0mm
09:29 52.2 °F /  11.2 °C 42.3 °F /  5.7 °C 29.9in /  1013.7hPa SSE 5.2mph /  8.4km/h 8.5mph /  13.7km/h 69% 0in /  0.0mm
09:34 51.8 °F /  11 °C 42.3 °F /  5.7 °C 29.9in /  1013.7hPa SSE 5.7mph /  9.2km/h 9mph /  14.5km/h 70% 0in /  0.0mm
09:39 51.4 °F /  10.8 °C 42.3 °F /  5.7 °C 29.9in /  1013.7hPa SSE 5.9mph /  9.5km/h 8.1mph /  13km/h 70.7% 0in /  0.0mm
09:44 51.4 °F /  10.8 °C 42.4 °F /  5.8 °C 29.9in /  1013.7hPa Sur 5.4mph /  8.7km/h 8mph /  12.9km/h 71.1% 0in /  0.0mm
09:49 51.6 °F /  10.9 °C 42.6 °F /  5.9 °C 29.9in /  1013.7hPa Sur 5.2mph /  8.4km/h 7.4mph /  11.9km/h 71.1% 0in /  0.0mm
09:54 52.2 °F /  11.2 °C 42.8 °F /  6 °C 29.9in /  1013.9hPa SSE 4.6mph /  7.4km/h 7mph /  11.3km/h 70.3% 0in /  0.0mm
09:59 52.7 °F /  11.5 °C 43 °F /  6.1 °C 29.9in /  1013.9hPa SSE 4.3mph /  6.9km/h 7mph /  11.3km/h 69.3% 0in /  0.0mm
10:04 53.1 °F /  11.7 °C 43.2 °F /  6.2 °C 29.9in /  1013.9hPa SO 3.8mph /  6.1km/h 7mph /  11.3km/h 69% 0in /  0.0mm
10:09 53.4 °F /  11.9 °C 43.2 °F /  6.2 °C 30in /  1014.2hPa SO 3.6mph /  5.8km/h 5mph /  8km/h 68.4% 0in /  0.0mm
10:14 54 °F /  12.2 °C 43.5 °F /  6.4 °C 30in /  1014.2hPa SO 2.1mph /  3.3km/h 2.3mph /  3.7km/h 67.9% 0in /  0.0mm
10:19 54.3 °F /  12.4 °C 43.7 °F /  6.5 °C 30in /  1014.2hPa Sur 1.4mph /  2.2km/h 2.9mph /  4.7km/h 67% 0in /  0.0mm
10:24 55 °F /  12.8 °C 43.7 °F /  6.5 °C 30in /  1014.5hPa ESE 1.4mph /  2.2km/h 4mph /  6.4km/h 65.7% 0in /  0.0mm
10:29 55.6 °F /  13.1 °C 44.1 °F /  6.7 °C 30in /  1014.5hPa ESE 1.4mph /  2.2km/h 5mph /  8km/h 65% 0in /  0.0mm
10:34 55.9 °F /  13.3 °C 44.4 °F /  6.9 °C 30in /  1014.5hPa SE 1.8mph /  2.9km/h 4.7mph /  7.6km/h 65% 0in /  0.0mm
10:39 56.3 °F /  13.5 °C 45 °F /  7.2 °C 30in /  1014.5hPa SSE 2mph /  3.2km/h 7.6mph /  12.2km/h 65.7% 0in /  0.0mm
10:44 56.5 °F /  13.6 °C 45.5 °F /  7.5 °C 30in /  1014.5hPa SE 3.4mph /  5.4km/h 8.1mph /  13km/h 66.7% 0in /  0.0mm
10:49 56.7 °F /  13.7 °C 45.5 °F /  7.5 °C 30in /  1014.5hPa SSE 4mph /  6.5km/h 8.1mph /  13km/h 66.1% 0in /  0.0mm
10:54 57 °F /  13.9 °C 45.5 °F /  7.5 °C 30in /  1014.5hPa SSE 4.5mph /  7.2km/h 8.5mph /  13.7km/h 65.2% 0in /  0.0mm
10:59 57.6 °F /  14.2 °C 45.5 °F /  7.5 °C 30in /  1014.5hPa SSE 4.7mph /  7.6km/h 9mph /  14.5km/h 63.8% 0in /  0.0mm
11:04 57.9 °F /  14.4 °C 45.3 °F /  7.4 °C 30in /  1014.5hPa Sur 5.2mph /  8.4km/h 9mph /  14.5km/h 63% 0in /  0.0mm
11:09 58.1 °F /  14.5 °C 45.7 °F /  7.6 °C 30in /  1014.5hPa SSO 5.4mph /  8.7km/h 7mph /  11.3km/h 63% 0in /  0.0mm
11:14 58.3 °F /  14.6 °C 45.5 °F /  7.5 °C 30in /  1014.5hPa Sur 4.7mph /  7.5km/h 7mph /  11.3km/h 62.4% 0in /  0.0mm
11:19 58.5 °F /  14.7 °C 45.5 °F /  7.5 °C 30in /  1014.5hPa Sur 4.3mph /  6.9km/h 6mph /  9.7km/h 62.1% 0in /  0.0mm
11:24 58.6 °F /  14.8 °C 45.7 °F /  7.6 °C 30in /  1014.5hPa Sur 3.9mph /  6.2km/h 7.4mph /  11.9km/h 62% 0in /  0.0mm
11:29 59 °F /  15 °C 46 °F /  7.8 °C 30in /  1014.5hPa Sur 3.6mph /  5.8km/h 7mph /  11.3km/h 62% 0in /  0.0mm
11:34 59.5 °F /  15.3 °C 46.2 °F /  7.9 °C 30in /  1014.5hPa Sur 3.9mph /  6.2km/h 8.1mph /  13km/h 61.4% 0in /  0.0mm
11:39 60.1 °F /  15.6 °C 46.2 °F /  7.9 °C 30in /  1014.5hPa Sur 4mph /  6.5km/h 8.5mph /  13.7km/h 60.3% 0in /  0.0mm
11:44 60.8 °F /  16 °C 46.6 °F /  8.1 °C 30in /  1014.3hPa SSO 4.5mph /  7.2km/h 9mph /  14.5km/h 59.5% 0in /  0.0mm
11:49 61.3 °F /  16.3 °C 46.8 °F /  8.2 °C 30in /  1014.3hPa SSO 4.7mph /  7.6km/h 7mph /  11.3km/h 58.5% 0in /  0.0mm
11:54 62.1 °F /  16.7 °C 46.9 °F /  8.3 °C 30in /  1014.3hPa SSO 4.4mph /  7.1km/h 7mph /  11.3km/h 57.5% 0in /  0.0mm
11:59 62.6 °F /  17 °C 46.8 °F /  8.2 °C 29.9in /  1014.1hPa Sur 4.3mph /  6.9km/h 7mph /  11.3km/h 56.1% 0in /  0.0mm
12:04 63.1 °F /  17.3 °C 46.9 °F /  8.3 °C 29.9in /  1014.1hPa SSO 4.6mph /  7.4km/h 7mph /  11.3km/h 55.4% 0in /  0.0mm
12:09 63.3 °F /  17.4 °C 46.8 °F /  8.2 °C 29.9in /  1014.1hPa SSO 4.7mph /  7.6km/h 6.9mph /  11.1km/h 54.6% 0in /  0.0mm
12:14 63.7 °F /  17.6 °C 46.8 °F /  8.2 °C 29.9in /  1013.9hPa Sur 4.2mph /  6.8km/h 7mph /  11.3km/h 54.3% 0in /  0.0mm
12:19 64 °F /  17.8 °C 46.9 °F /  8.3 °C 29.9in /  1013.9hPa Oeste 4mph /  6.5km/h 5.2mph /  8.4km/h 53.7% 0in /  0.0mm
12:24 64.4 °F /  18 °C 46.9 °F /  8.3 °C 29.9in /  1013.9hPa Oeste 2.9mph /  4.7km/h 6.9mph /  11.1km/h 53% 0in /  0.0mm
12:29 64.8 °F /  18.2 °C 47.1 °F /  8.4 °C 29.9in /  1013.7hPa OSO 2.4mph /  3.9km/h 7.4mph /  11.9km/h 53% 0in /  0.0mm
12:34 64.9 °F /  18.3 °C 47.3 °F /  8.5 °C 29.9in /  1013.7hPa Oeste 3.2mph /  5.2km/h 9.2mph /  14.8km/h 53% 0in /  0.0mm
12:39 64.9 °F /  18.3 °C 47.5 °F /  8.6 °C 29.9in /  1013.7hPa OSO 3.6mph /  5.8km/h 9mph /  14.5km/h 53.2% 0in /  0.0mm
12:44 65.1 °F /  18.4 °C 47.7 °F /  8.7 °C 29.9in /  1013.4hPa OSO 4.1mph /  6.6km/h 6.9mph /  11.1km/h 53.1% 0in /  0.0mm
12:49 65.3 °F /  18.5 °C 47.7 °F /  8.7 °C 29.9in /  1013.4hPa Oeste 4.3mph /  6.9km/h 7mph /  11.3km/h 53% 0in /  0.0mm
12:54 65.5 °F /  18.6 °C 47.8 °F /  8.8 °C 29.9in /  1013.4hPa Oeste 3.5mph /  5.6km/h 5.2mph /  8.4km/h 53% 0in /  0.0mm
12:59 65.7 °F /  18.7 °C 48 °F /  8.9 °C 29.9in /  1013.1hPa Oeste 3.1mph /  5km/h 5mph /  8km/h 53% 0in /  0.0mm
13:04 65.8 °F /  18.8 °C 47.8 °F /  8.8 °C 29.9in /  1013.1hPa ONO 2.3mph /  3.7km/h 4.7mph /  7.6km/h 52.1% 0in /  0.0mm
13:09 66.2 °F /  19 °C 48.6 °F /  9.2 °C 29.9in /  1013.1hPa SO 2mph /  3.2km/h 5mph /  8km/h 52.9% 0in /  0.0mm
13:14 66.7 °F /  19.3 °C 48.4 °F /  9.1 °C 29.9in /  1013.1hPa ONO 1.9mph /  3km/h 5mph /  8km/h 51.8% 0in /  0.0mm
13:19 66.9 °F /  19.4 °C 48.2 °F /  9 °C 29.9in /  1013.1hPa NO 1.8mph /  2.9km/h 6.2mph /  10km/h 51% 0in /  0.0mm
13:24 66.9 °F /  19.4 °C 48.2 °F /  9 °C 29.9in /  1013.1hPa Oeste 2.7mph /  4.3km/h 6.9mph /  11.1km/h 51% 0in /  0.0mm
13:29 66.9 °F /  19.4 °C 48.2 °F /  9 °C 29.9in /  1012.8hPa Oeste 3.1mph /  5km/h 7mph /  11.3km/h 51% 0in /  0.0mm
13:34 67.1 °F /  19.5 °C 48.7 °F /  9.3 °C 29.9in /  1012.8hPa ONO 3.1mph /  5km/h 5.8mph /  9.3km/h 51.7% 0in /  0.0mm
13:39 67.5 °F /  19.7 °C 48.7 °F /  9.3 °C 29.9in /  1012.8hPa OSO 3.1mph /  5km/h 6mph /  9.7km/h 51% 0in /  0.0mm
13:44 67.6 °F /  19.8 °C 48.9 °F /  9.4 °C 29.9in /  1012.5hPa OSO 3.1mph /  5km/h 6mph /  9.7km/h 51% 0in /  0.0mm
13:49 68.2 °F /  20.1 °C 48.9 °F /  9.4 °C 29.9in /  1012.5hPa OSO 3.1mph /  5km/h 6mph /  9.7km/h 50.4% 0in /  0.0mm
13:54 68.4 °F /  20.2 °C 49.1 °F /  9.5 °C 29.9in /  1012.5hPa OSO 3.1mph /  5km/h 6.2mph /  10km/h 50.4% 0in /  0.0mm
13:59 68.5 °F /  20.3 °C 49.1 °F /  9.5 °C 29.9in /  1012.2hPa SO 3.1mph /  5km/h 8.1mph /  13km/h 50% 0in /  0.0mm
14:04 68.7 °F /  20.4 °C 49.3 °F /  9.6 °C 29.9in /  1012.2hPa OSO 4.3mph /  6.9km/h 10mph /  16.1km/h 50% 0in /  0.0mm
14:09 68.9 °F /  20.5 °C 49.5 °F /  9.7 °C 29.9in /  1012.2hPa OSO 4.7mph /  7.6km/h 10.4mph /  16.7km/h 49.9% 0in /  0.0mm
14:14 69.3 °F /  20.7 °C 49.6 °F /  9.8 °C 29.9in /  1012.0hPa SO 5mph /  8.1km/h 8.1mph /  13km/h 49.9% 0in /  0.0mm
14:19 69.3 °F /  20.7 °C 49.8 °F /  9.9 °C 29.9in /  1012.0hPa SO 5.2mph /  8.4km/h 8.1mph /  13km/h 49.8% 0in /  0.0mm
14:24 69.4 °F /  20.8 °C 50.2 °F /  10.1 °C 29.9in /  1012.0hPa SO 4.8mph /  7.8km/h 8.1mph /  13km/h 50% 0in /  0.0mm
14:29 69.8 °F /  21 °C 50.2 °F /  10.1 °C 29.9in /  1011.9hPa SO 4.7mph /  7.6km/h 8mph /  12.9km/h 49.9% 0in /  0.0mm
14:34 70 °F /  21.1 °C 50.5 °F /  10.3 °C 29.9in /  1011.9hPa OSO 4.2mph /  6.8km/h 7mph /  11.3km/h 49.9% 0in /  0.0mm
14:39 70 °F /  21.1 °C 50.5 °F /  10.3 °C 29.9in /  1011.9hPa SO 4mph /  6.5km/h 6mph /  9.7km/h 50% 0in /  0.0mm
14:44 70.2 °F /  21.2 °C 50.5 °F /  10.3 °C 29.9in /  1011.8hPa SSO 3.4mph /  5.5km/h 5mph /  8km/h 49.8% 0in /  0.0mm
14:49 70.3 °F /  21.3 °C 50.7 °F /  10.4 °C 29.9in /  1011.8hPa Sur 3.1mph /  5km/h 6.2mph /  10km/h 49.7% 0in /  0.0mm
14:54 70.3 °F /  21.3 °C 50.7 °F /  10.4 °C 29.9in /  1011.8hPa SSE 3mph /  4.8km/h 6mph /  9.7km/h 50% 0in /  0.0mm
14:59 70.3 °F /  21.3 °C 50.5 °F /  10.3 °C 29.9in /  1011.8hPa SSE 2.9mph /  4.7km/h 5mph /  8km/h 49.6% 0in /  0.0mm
15:04 70.3 °F /  21.3 °C 50.7 °F /  10.4 °C 29.9in /  1011.8hPa Sur 2.9mph /  4.7km/h 5mph /  8km/h 50% 0in /  0.0mm
15:09 70.3 °F /  21.3 °C 50.7 °F /  10.4 °C 29.9in /  1011.8hPa SSE 2.9mph /  4.7km/h 6.2mph /  10km/h 50% 0in /  0.0mm
15:14 70.2 °F /  21.2 °C 50.7 °F /  10.4 °C 29.9in /  1011.7hPa SSE 3.4mph /  5.4km/h 6.2mph /  10km/h 50% 0in /  0.0mm
15:19 70.2 °F /  21.2 °C 50.5 °F /  10.3 °C 29.9in /  1011.7hPa SSE 3.6mph /  5.8km/h 7.4mph /  11.9km/h 50% 0in /  0.0mm
15:24 70.2 °F /  21.2 °C 50.5 °F /  10.3 °C 29.9in /  1011.9hPa SE 4mph /  6.5km/h 7mph /  11.3km/h 50% 0in /  0.0mm
15:29 70 °F /  21.1 °C 50.9 °F /  10.5 °C 29.9in /  1011.9hPa SE 4.3mph /  6.9km/h 6.9mph /  11.1km/h 50.7% 0in /  0.0mm
15:34 69.8 °F /  21 °C 50.9 °F /  10.5 °C 29.9in /  1011.9hPa SE 4.1mph /  6.6km/h 7mph /  11.3km/h 51% 0in /  0.0mm
15:39 69.8 °F /  21 °C 50.9 °F /  10.5 °C 29.9in /  1011.9hPa SSE 4mph /  6.5km/h 5.9mph /  9.5km/h 51% 0in /  0.0mm
15:44 69.8 °F /  21 °C 50.9 °F /  10.5 °C 29.9in /  1011.7hPa Sur 3.7mph /  6km/h 6mph /  9.7km/h 51% 0in /  0.0mm
15:49 69.8 °F /  21 °C 50.9 °F /  10.5 °C 29.9in /  1011.7hPa SSE 3.6mph /  5.8km/h 5mph /  8km/h 51% 0in /  0.0mm
15:54 70 °F /  21.1 °C 51.1 °F /  10.6 °C 29.9in /  1011.8hPa Sur 2.8mph /  4.5km/h 5mph /  8km/h 51% 0in /  0.0mm
15:59 70.2 °F /  21.2 °C 50.7 °F /  10.4 °C 29.9in /  1011.8hPa SO 2.4mph /  3.9km/h 3.5mph /  5.6km/h 50.4% 0in /  0.0mm
16:04 70.2 °F /  21.2 °C 50.5 °F /  10.3 °C 29.9in /  1011.8hPa OSO 1.7mph /  2.7km/h 3mph /  4.8km/h 50% 0in /  0.0mm
16:09 70.3 °F /  21.3 °C 51.1 °F /  10.6 °C 29.9in /  1011.8hPa OSO 1.4mph /  2.2km/h 3.5mph /  5.6km/h 50.5% 0in /  0.0mm
16:14 70.3 °F /  21.3 °C 51.3 °F /  10.7 °C 29.9in /  1011.7hPa OSO 1.4mph /  2.2km/h 4.6mph /  7.4km/h 51% 0in /  0.0mm
16:19 70.3 °F /  21.3 °C 51.3 °F /  10.7 °C 29.9in /  1011.7hPa OSO 1.4mph /  2.2km/h 5mph /  8km/h 50.8% 0in /  0.0mm
16:24 70.3 °F /  21.3 °C 51.3 °F /  10.7 °C 29.9in /  1011.8hPa OSO 1.8mph /  2.9km/h 5mph /  8km/h 51% 0in /  0.0mm
16:29 70.3 °F /  21.3 °C 51.6 °F /  10.9 °C 29.9in /  1011.8hPa OSO 2mph /  3.2km/h 4mph /  6.4km/h 51.6% 0in /  0.0mm
16:34 70.3 °F /  21.3 °C 52 °F /  11.1 °C 29.9in /  1011.8hPa ONO 1.9mph /  3km/h 5mph /  8km/h 52% 0in /  0.0mm
16:39 70.3 °F /  21.3 °C 52 °F /  11.1 °C 29.9in /  1011.8hPa ONO 1.8mph /  2.9km/h 5mph /  8km/h 52% 0in /  0.0mm
16:44 70.3 °F /  21.3 °C 51.8 °F /  11 °C 29.9in /  1011.8hPa ONO 1.6mph /  2.5km/h 3.6mph /  5.8km/h 52% 0in /  0.0mm
16:49 70.2 °F /  21.2 °C 51.6 °F /  10.9 °C 29.9in /  1011.8hPa SO 1.4mph /  2.2km/h 5.2mph /  8.4km/h 52% 0in /  0.0mm
16:54 70.2 °F /  21.2 °C 51.6 °F /  10.9 °C 29.9in /  1011.9hPa SSE 2.1mph /  3.4km/h 5mph /  8km/h 51.8% 0in /  0.0mm
16:59 70 °F /  21.1 °C 52.2 °F /  11.2 °C 29.9in /  1011.9hPa SE 2.4mph /  3.9km/h 6.9mph /  11.1km/h 53% 0in /  0.0mm
17:04 69.6 °F /  20.9 °C 52.2 °F /  11.2 °C 29.9in /  1011.9hPa SE 2.7mph /  4.4km/h 7mph /  11.3km/h 54% 0in /  0.0mm
17:09 69.4 °F /  20.8 °C 52.3 °F /  11.3 °C 29.9in /  1011.9hPa SSE 2.9mph /  4.7km/h 7mph /  11.3km/h 54.4% 0in /  0.0mm
17:14 69.6 °F /  20.9 °C 52.2 °F /  11.2 °C 29.9in /  1011.9hPa SO 2.5mph /  4.1km/h 5mph /  8km/h 54% 0in /  0.0mm
17:19 70 °F /  21.1 °C 52.3 °F /  11.3 °C 29.9in /  1011.9hPa Sur 2.4mph /  3.9km/h 5.4mph /  8.7km/h 53.5% 0in /  0.0mm
17:24 70 °F /  21.1 °C 52.2 °F /  11.2 °C 29.9in /  1012.0hPa Sur 2.4mph /  3.9km/h 6mph /  9.7km/h 53.2% 0in /  0.0mm
17:29 69.8 °F /  21 °C 52.3 °F /  11.3 °C 29.9in /  1012.0hPa SO 2.4mph /  3.9km/h 5mph /  8km/h 54% 0in /  0.0mm
17:34 69.4 °F /  20.8 °C 52.2 °F /  11.2 °C 29.9in /  1012.0hPa Oeste 2.1mph /  3.4km/h 10.7mph /  17.2km/h 54% 0in /  0.0mm
17:39 69.3 °F /  20.7 °C 52 °F /  11.1 °C 29.9in /  1012.2hPa OSO 2mph /  3.2km/h 11mph /  17.7km/h 54.2% 0in /  0.0mm
17:44 69.1 °F /  20.6 °C 51.8 °F /  11 °C 29.9in /  1012.2hPa OSO 3.1mph /  5km/h 10mph /  16.1km/h 54.3% 0in /  0.0mm
17:49 68.7 °F /  20.4 °C 51.4 °F /  10.8 °C 29.9in /  1012.2hPa OSO 3.6mph /  5.8km/h 8.7mph /  14km/h 54% 0in /  0.0mm
17:54 68.5 °F /  20.3 °C 51.3 °F /  10.7 °C 29.9in /  1012.4hPa SO 4.3mph /  7km/h 9.2mph /  14.8km/h 54% 0in /  0.0mm
17:59 68.4 °F /  20.2 °C 51.1 °F /  10.6 °C 29.9in /  1012.4hPa OSO 4.7mph /  7.6km/h 8mph /  12.9km/h 54% 0in /  0.0mm
18:04 68.4 °F /  20.2 °C 51.1 °F /  10.6 °C 29.9in /  1012.4hPa OSO 4.2mph /  6.8km/h 8.1mph /  13km/h 54% 0in /  0.0mm
18:09 68.4 °F /  20.2 °C 51.1 °F /  10.6 °C 29.9in /  1012.9hPa OSO 4mph /  6.5km/h 8.5mph /  13.7km/h 54% 0in /  0.0mm
18:14 68.4 °F /  20.2 °C 51.1 °F /  10.6 °C 29.9in /  1012.9hPa SO 4mph /  6.5km/h 9mph /  14.5km/h 54% 0in /  0.0mm
18:19 68.4 °F /  20.2 °C 51.1 °F /  10.6 °C 29.9in /  1012.9hPa SO 4mph /  6.5km/h 7.6mph /  12.2km/h 54% 0in /  0.0mm
18:24 68.2 °F /  20.1 °C 50.9 °F /  10.5 °C 29.9in /  1013.0hPa SO 4.2mph /  6.8km/h 9.2mph /  14.8km/h 54% 0in /  0.0mm
18:29 68.2 °F /  20.1 °C 51.1 °F /  10.6 °C 29.9in /  1013.0hPa SO 4.3mph /  6.9km/h 9.2mph /  14.8km/h 54.3% 0in /  0.0mm
18:34 67.8 °F /  19.9 °C 51.1 °F /  10.6 °C 29.9in /  1013.0hPa OSO 5.1mph /  8.2km/h 10.4mph /  16.7km/h 55% 0in /  0.0mm
18:39 67.8 °F /  19.9 °C 51.1 °F /  10.6 °C 29.9in /  1013.0hPa OSO 5.4mph /  8.7km/h 10mph /  16.1km/h 55% 0in /  0.0mm
18:44 67.6 °F /  19.8 °C 50.9 °F /  10.5 °C 29.9in /  1013.0hPa OSO 5.4mph /  8.7km/h 10mph /  16.1km/h 55% 0in /  0.0mm
18:49 67.8 °F /  19.9 °C 51.1 °F /  10.6 °C 29.9in /  1013.0hPa OSO 5.4mph /  8.7km/h 10.4mph /  16.7km/h 55% 0in /  0.0mm
18:54 68.2 °F /  20.1 °C 51.3 °F /  10.7 °C 29.9in /  1013.0hPa OSO 5.4mph /  8.7km/h 11.8mph /  19km/h 54.7% 0in /  0.0mm
18:59 68.2 °F /  20.1 °C 51.4 °F /  10.8 °C 29.9in /  1012.9hPa SO 5.4mph /  8.7km/h 12mph /  19.3km/h 54.9% 0in /  0.0mm
19:04 68 °F /  20 °C 51.3 °F /  10.7 °C 29.9in /  1012.9hPa Oeste 4.1mph /  6.6km/h 8mph /  12.9km/h 55% 0in /  0.0mm
19:09 67.6 °F /  19.8 °C 51.3 °F /  10.7 °C 29.9in /  1013.0hPa OSO 3.6mph /  5.8km/h 6.9mph /  11.1km/h 55.7% 0in /  0.0mm
19:14 67.5 °F /  19.7 °C 51.4 °F /  10.8 °C 29.9in /  1013.0hPa SO 3.2mph /  5.2km/h 7mph /  11.3km/h 56.5% 0in /  0.0mm
19:19 67.1 °F /  19.5 °C 51.6 °F /  10.9 °C 29.9in /  1013.0hPa SO 3.1mph /  5km/h 7.4mph /  11.9km/h 57.4% 0in /  0.0mm
19:24 66.7 °F /  19.3 °C 51.6 °F /  10.9 °C 29.9in /  1013.0hPa SSO 3.9mph /  6.3km/h 8.5mph /  13.7km/h 58.1% 0in /  0.0mm
19:29 66.6 °F /  19.2 °C 51.8 °F /  11 °C 29.9in /  1013.0hPa Sur 4.3mph /  6.9km/h 9.2mph /  14.8km/h 59.2% 0in /  0.0mm
19:34 65.8 °F /  18.8 °C 52.2 °F /  11.2 °C 29.9in /  1013.0hPa Sur 4.3mph /  6.9km/h 9mph /  14.5km/h 61.2% 0in /  0.0mm
19:39 65.3 °F /  18.5 °C 52.2 °F /  11.2 °C 29.9in /  1013.3hPa SSE 4.3mph /  6.9km/h 8.1mph /  13km/h 62.7% 0in /  0.0mm
19:44 64.8 °F /  18.2 °C 52.2 °F /  11.2 °C 29.9in /  1013.3hPa SSO 4.6mph /  7.4km/h 8.5mph /  13.7km/h 63.8% 0in /  0.0mm
19:49 64.6 °F /  18.1 °C 52.2 °F /  11.2 °C 29.9in /  1013.3hPa SSO 4.7mph /  7.6km/h 9mph /  14.5km/h 64% 0in /  0.0mm
19:54 64.8 °F /  18.2 °C 52.3 °F /  11.3 °C 29.9in /  1013.5hPa SSO 4.7mph /  7.6km/h 8.5mph /  13.7km/h 64% 0in /  0.0mm
19:59 64.9 °F /  18.3 °C 52.3 °F /  11.3 °C 29.9in /  1013.5hPa SSO 4.7mph /  7.6km/h 9mph /  14.5km/h 63.5% 0in /  0.0mm
20:04 64.9 °F /  18.3 °C 52.2 °F /  11.2 °C 29.9in /  1013.5hPa OSO 4.4mph /  7.1km/h 7mph /  11.3km/h 63.2% 0in /  0.0mm
20:09 64.8 °F /  18.2 °C 52.3 °F /  11.3 °C 29.9in /  1013.8hPa SO 4.3mph /  6.9km/h 6.9mph /  11.1km/h 64% 0in /  0.0mm
20:14 64.6 °F /  18.1 °C 52.2 °F /  11.2 °C 29.9in /  1013.8hPa SO 3.5mph /  5.6km/h 7mph /  11.3km/h 64% 0in /  0.0mm
20:19 64.6 °F /  18.1 °C 52.2 °F /  11.2 °C 29.9in /  1013.8hPa SO 3.1mph /  5km/h 6mph /  9.7km/h 64% 0in /  0.0mm
20:24 64.6 °F /  18.1 °C 52.2 °F /  11.2 °C 29.9in /  1014.1hPa Sur 3.4mph /  5.5km/h 5.2mph /  8.4km/h 64% 0in /  0.0mm
20:29 64.6 °F /  18.1 °C 52 °F /  11.1 °C 29.9in /  1014.1hPa SSE 3.6mph /  5.8km/h 5mph /  8km/h 64% 0in /  0.0mm
20:34 64.4 °F /  18 °C 52 °F /  11.1 °C 29.9in /  1014.1hPa SSE 3.2mph /  5.2km/h 5mph /  8km/h 64% 0in /  0.0mm
20:39 64.4 °F /  18 °C 52 °F /  11.1 °C 29.9in /  1014.1hPa SSE 3.1mph /  5km/h 3.5mph /  5.6km/h 64% 0in /  0.0mm
20:44 64.4 °F /  18 °C 52 °F /  11.1 °C 29.9in /  1014.1hPa SO 2.4mph /  3.8km/h 4.6mph /  7.4km/h 64% 0in /  0.0mm
20:49 64.2 °F /  17.9 °C 51.8 °F /  11 °C 29.9in /  1014.1hPa OSO 2mph /  3.2km/h 5mph /  8km/h 64% 0in /  0.0mm
20:54 63.9 °F /  17.7 °C 51.8 °F /  11 °C 30in /  1014.2hPa OSO 1.6mph /  2.6km/h 2.9mph /  4.7km/h 64.5% 0in /  0.0mm
20:59 63.7 °F /  17.6 °C 51.8 °F /  11 °C 30in /  1014.2hPa OSO 1.4mph /  2.2km/h 4.3mph /  6.9km/h 65.2% 0in /  0.0mm
21:04 63.1 °F /  17.3 °C 51.8 °F /  11 °C 30in /  1014.2hPa SSE 1.8mph /  2.9km/h 5.9mph /  9.5km/h 66.3% 0in /  0.0mm
21:09 62.8 °F /  17.1 °C 51.8 °F /  11 °C 30in /  1014.3hPa SSE 2mph /  3.2km/h 6mph /  9.7km/h 67.2% 0in /  0.0mm
21:14 62.4 °F /  16.9 °C 51.8 °F /  11 °C 30in /  1014.3hPa OSO 2.7mph /  4.4km/h 5mph /  8km/h 68% 0in /  0.0mm
21:19 62.2 °F /  16.8 °C 51.6 °F /  10.9 °C 30in /  1014.3hPa SSO 3.1mph /  5km/h 5.9mph /  9.5km/h 68.5% 0in /  0.0mm
21:24 61.9 °F /  16.6 °C 51.6 °F /  10.9 °C 30in /  1014.3hPa SSO 3mph /  4.8km/h 6mph /  9.7km/h 69% 0in /  0.0mm
21:29 61.9 °F /  16.6 °C 51.6 °F /  10.9 °C 30in /  1014.3hPa Sur 2.9mph /  4.7km/h 6mph /  9.7km/h 69% 0in /  0.0mm
21:34 61.9 °F /  16.6 °C 51.6 °F /  10.9 °C 30in /  1014.3hPa SSO 3.7mph /  5.9km/h 5.2mph /  8.4km/h 69% 0in /  0.0mm
21:39 61.9 °F /  16.6 °C 51.4 °F /  10.8 °C 30in /  1014.3hPa OSO 4mph /  6.5km/h 5mph /  8km/h 69% 0in /  0.0mm
21:44 61.3 °F /  16.3 °C 51.3 °F /  10.7 °C 30in /  1014.3hPa SO 3.4mph /  5.5km/h 5.2mph /  8.4km/h 69.5% 0in /  0.0mm
21:49 61 °F /  16.1 °C 51.1 °F /  10.6 °C 30in /  1014.3hPa OSO 3.1mph /  5km/h 5mph /  8km/h 70% 0in /  0.0mm
21:54 60.6 °F /  15.9 °C 51.1 °F /  10.6 °C 30in /  1014.3hPa SO 3.1mph /  5km/h 5.9mph /  9.5km/h 70.5% 0in /  0.0mm
21:59 60.8 °F /  16 °C 51.1 °F /  10.6 °C 30in /  1014.3hPa OSO 3.1mph /  5km/h 6mph /  9.7km/h 70% 0in /  0.0mm
22:04 61 °F /  16.1 °C 51.1 °F /  10.6 °C 30in /  1014.3hPa OSO 3.7mph /  6km/h 6.9mph /  11.1km/h 70% 0in /  0.0mm
22:09 61 °F /  16.1 °C 51.1 °F /  10.6 °C 30in /  1014.5hPa OSO 4mph /  6.5km/h 7mph /  11.3km/h 70% 0in /  0.0mm
22:14 60.8 °F /  16 °C 50.9 °F /  10.5 °C 30in /  1014.5hPa SO 3.7mph /  6km/h 6mph /  9.7km/h 70% 0in /  0.0mm
22:19 60.6 °F /  15.9 °C 50.9 °F /  10.5 °C 30in /  1014.5hPa SO 3.6mph /  5.8km/h 6.9mph /  11.1km/h 70% 0in /  0.0mm
22:24 61.2 °F /  16.2 °C 51.1 °F /  10.6 °C 30in /  1014.6hPa SSO 3.2mph /  5.2km/h 7mph /  11.3km/h 69.7% 0in /  0.0mm
22:29 61.2 °F /  16.2 °C 50.9 °F /  10.5 °C 30in /  1014.6hPa Sur 3.1mph /  5km/h 6.2mph /  10km/h 69% 0in /  0.0mm
22:34 61 °F /  16.1 °C 50.9 °F /  10.5 °C 30in /  1014.6hPa Sur 3.9mph /  6.3km/h 6mph /  9.7km/h 69.3% 0in /  0.0mm
22:39 60.6 °F /  15.9 °C 50.9 °F /  10.5 °C 30in /  1014.6hPa Sur 4.3mph /  6.9km/h 6mph /  9.7km/h 70.1% 0in /  0.0mm
22:44 60.4 °F /  15.8 °C 51.1 °F /  10.6 °C 30in /  1014.6hPa Sur 3.9mph /  6.2km/h 6mph /  9.7km/h 71% 0in /  0.0mm
22:49 60.3 °F /  15.7 °C 50.9 °F /  10.5 °C 30in /  1014.6hPa Sur 3.6mph /  5.8km/h 5mph /  8km/h 71% 0in /  0.0mm
22:54 60.3 °F /  15.7 °C 50.7 °F /  10.4 °C 30in /  1014.6hPa SE 3.1mph /  5km/h 5.8mph /  9.3km/h 71.1% 0in /  0.0mm
22:59 59.5 °F /  15.3 °C 50.7 °F /  10.4 °C 30in /  1014.4hPa SE 2.9mph /  4.7km/h 6.9mph /  11.1km/h 72.5% 0in /  0.0mm
23:04 58.6 °F /  14.8 °C 50.5 °F /  10.3 °C 30in /  1014.4hPa SE 3.7mph /  5.9km/h 7mph /  11.3km/h 74.7% 0in /  0.0mm
23:09 58.3 °F /  14.6 °C 50.7 °F /  10.4 °C 30in /  1014.6hPa SSE 4mph /  6.5km/h 6.9mph /  11.1km/h 75.9% 0in /  0.0mm
23:14 58.1 °F /  14.5 °C 50.5 °F /  10.3 °C 30in /  1014.6hPa SSE 4.2mph /  6.8km/h 7mph /  11.3km/h 76% 0in /  0.0mm
23:19 58.1 °F /  14.5 °C 50.9 °F /  10.5 °C 30in /  1014.6hPa SE 4.3mph /  6.9km/h 7mph /  11.3km/h 76.9% 0in /  0.0mm
23:24 58.3 °F /  14.6 °C 50.7 °F /  10.4 °C 30in /  1014.7hPa SSE 4.6mph /  7.4km/h 7mph /  11.3km/h 76.1% 0in /  0.0mm
23:29 58.5 °F /  14.7 °C 50.9 °F /  10.5 °C 30in /  1014.7hPa SSO 4.7mph /  7.6km/h 7mph /  11.3km/h 75.9% 0in /  0.0mm
23:34 58.8 °F /  14.9 °C 50.7 °F /  10.4 °C 30in /  1014.7hPa SSO 4.4mph /  7.1km/h 7mph /  11.3km/h 74.8% 0in /  0.0mm
23:39 59.2 °F /  15.1 °C 50.9 °F /  10.5 °C 30in /  1014.7hPa SO 4.3mph /  6.9km/h 7mph /  11.3km/h 74% 0in /  0.0mm
23:44 59.4 °F /  15.2 °C 50.9 °F /  10.5 °C 30in /  1014.6hPa SO 4.1mph /  6.6km/h 7mph /  11.3km/h 73.3% 0in /  0.0mm
23:49 59.4 °F /  15.2 °C 50.9 °F /  10.5 °C 30in /  1014.6hPa SSO 4mph /  6.5km/h 5mph /  8km/h 73.6% 0in /  0.0mm
23:54 59.4 °F /  15.2 °C 50.7 °F /  10.4 °C 30in /  1014.6hPa Sur 3.4mph /  5.5km/h 5mph /  8km/h 73.1% 0in /  0.0mm
23:59 59.4 °F /  15.2 °C 50.5 °F /  10.3 °C 30in /  1014.6hPa ESE 3.1mph /  5km/h 5mph /  8km/h 73% 0in /  0.0mm
Murcia-Puente Tocinos, España
Compliments of Weather Underground - 3 mb

La estación de MeteoMurcia.com, publica sus datos en los siguientes proyectos:

Weather Underground PWS IMURCIAP2 Meteoclimatic www.awekas.at

W3Counter
Web Analytics